Upstream stations:
Downstream station:
SHEF ID: QUAO2 Spring River near Quapaw, OK
STATION TYPE:
Regulating: Stage = 20.00, Flow = 33676
PRECIP STAGE STAGE(2) RIV-FLOW BAT-LOAD
in ft ft cfs volt
Ccp-Rev Ccp-Rev Ccp-Rev Ccp-Rev Ccp-Rev
(US/Central)
04/02 00:00 0.00 7.77 8.05 2248 12.33
04/02 01:00 0.00 7.76 8.04 2234 12.32
04/02 02:00 0.00 7.79 8.04 2277 12.32
04/02 03:00 0.00 7.76 8.04 2234 12.31
04/02 04:00 0.02 7.74 8.03 2206 12.27
04/02 05:00 0.01 7.77 8.03 2248 12.18
04/02 06:00 0.00 7.77 8.03 2248 12.21
04/02 07:00 0.00 7.74 8.01 2206 12.21
04/02 08:00 0.00 7.75 8.01 2220 12.23
04/02 09:00 0.00 7.74 8.01 2206 12.54
04/02 10:00 0.00 7.75 7.99 2220 12.93
04/02 11:00 0.00 7.73 7.96 2192 13.36
04/02 12:00 0.00 7.72 7.98 2178 13.57
04/02 13:00 0.00 7.73 7.96 2192 12.86
04/02 14:00 0.00 7.70 7.94 2150 12.77
04/02 15:00 0.00 7.70 7.94 2150 12.88
04/02 16:00 0.00 7.69 7.87 2136 12.99
04/02 17:00 0.00 7.67 7.89 2109 12.69
04/02 18:00 0.00 7.67 7.92 2109 12.76
04/02 19:00 0.00 7.64 7.91 2068 12.62
04/02 20:00 0.00 7.65 7.92 2082 12.37
04/02 21:00 0.00 7.64 7.91 2068 12.31
04/02 22:00 0.00 7.64 7.90 2068 12.28
04/02 23:00 0.00 7.62 7.88 2041 12.24